MSC Livorno — DIGY2 — position and weather

sailwx.info

Track history (hours):
 
Tides and Currents Weather Stations Pressure Air Temp Water Temp Dewpoint Dewpoint Depression Visibility Wind Speed Wind Dir Waves Ship Positions

MSC Livorno

Last reported at 2018-Jul-16 01:56 UTC. Time now 2018-Jul-16 19:41 UTC.
Position N 30°37' E 122°03'.

Length 366 m; draft 9.9 m.

Type: Ship (hazmat cat A). MMSI: 218441000.

Date/timePositionNaut miles runAvg speedWind from/ knotsBaromVisibWave heightAir tempDewpointWater temp
2018-Jul-16 01:56N 30°37' E 122°03'0 0.4
2018-Jul-16 01:31N 30°37' E 122°03'0 0.6
2018-Jul-16 01:00N 30°37' E 122°03'2 4.8
2018-Jul-16 00:30N 30°36' E 122°06'812.9
2018-Jul-15 23:54N 30°33' E 122°14'  
2018-Jul-11 18:57N 23°59' E 118°44'612.6
2018-Jul-11 18:28N 23°55' E 118°39'712.7
2018-Jul-11 17:55N 23°51' E 118°33'2512.5
2018-Jul-11 15:54N 23°34' E 118°12'512.1
2018-Jul-11 15:30N 23°31' E 118°08'612.3
2018-Jul-11 14:59N 23°27' E 118°03'712.9
2018-Jul-11 14:27N 23°22' E 117°57'613.3
2018-Jul-11 13:59N 23°19' E 117°52'713.7
2018-Jul-11 13:30N 23°15' E 117°46'  
2018-Jul-09 00:00N 19°00' E 113°00'108 9.0 080 / 101004.027.0 29.524.530.4
2018-Jul-08 12:00N 17°12' E 113°06'13411.2 040 / 61003.0 5.4 29.0 30.7
2018-Jul-08 00:00N 15°06' E 112°18'16013.3 230 / 91003.910.8 29.025.529.7
2018-Jul-07 12:00N 12°42' E 111°06'   200 / 141003.910.8 27.022.627.1
Track history (hours):
 
Tides and Currents Weather Stations Pressure Air Temp Water Temp Dewpoint Dewpoint Depression Visibility Wind Speed Wind Dir Waves Ship Positions

MSC Livorno

Last reported at 2018-Jul-16 01:56 UTC. Time now 2018-Jul-16 19:41 UTC.
Position N 30°37' E 122°03'.

Length 366 m; draft 9.9 m.

Type: Ship (hazmat cat A). MMSI: 218441000.

Date/timePositionNaut miles runAvg speedWind from/ knotsBaromVisibWave heightAir tempDewpointWater temp
2018-Jul-16 01:56N 30°37' E 122°03'0 0.4
2018-Jul-16 01:31N 30°37' E 122°03'0 0.6
2018-Jul-16 01:00N 30°37' E 122°03'2 4.8
2018-Jul-16 00:30N 30°36' E 122°06'812.9
2018-Jul-15 23:54N 30°33' E 122°14'  
2018-Jul-11 18:57N 23°59' E 118°44'612.6
2018-Jul-11 18:28N 23°55' E 118°39'712.7
2018-Jul-11 17:55N 23°51' E 118°33'2512.5
2018-Jul-11 15:54N 23°34' E 118°12'512.1
2018-Jul-11 15:30N 23°31' E 118°08'612.3
2018-Jul-11 14:59N 23°27' E 118°03'712.9
2018-Jul-11 14:27N 23°22' E 117°57'613.3
2018-Jul-11 13:59N 23°19' E 117°52'713.7
2018-Jul-11 13:30N 23°15' E 117°46'  
2018-Jul-09 00:00N 19°00' E 113°00'108 9.0 080 / 101004.027.0 29.524.530.4
2018-Jul-08 12:00N 17°12' E 113°06'13411.2 040 / 61003.0 5.4 29.0 30.7
2018-Jul-08 00:00N 15°06' E 112°18'16013.3 230 / 91003.910.8 29.025.529.7
2018-Jul-07 12:00N 12°42' E 111°06'   200 / 141003.910.8 27.022.627.1

Dump ship's entire track history